sensor_id;sensor_type;location;lat;lon;timestamp;P1;durP1;ratioP1;P2;durP2;ratioP2
19842;SDS011;10082;51.038;6.992;2023-01-08T00:01:40;1.33;;;1.23;;
19842;SDS011;10082;51.038;6.992;2023-01-08T00:04:08;1.45;;;1.35;;
19842;SDS011;10082;51.038;6.992;2023-01-08T00:06:35;1.50;;;1.40;;
19842;SDS011;10082;51.038;6.992;2023-01-08T00:09:03;1.30;;;1.20;;
19842;SDS011;10082;51.038;6.992;2023-01-08T00:11:31;1.58;;;1.48;;
19842;SDS011;10082;51.038;6.992;2023-01-08T00:13:58;2.05;;;1.40;;
19842;SDS011;10082;51.038;6.992;2023-01-08T00:16:25;1.58;;;1.48;;
19842;SDS011;10082;51.038;6.992;2023-01-08T00:18:53;1.55;;;1.45;;
19842;SDS011;10082;51.038;6.992;2023-01-08T00:21:20;2.20;;;1.52;;
19842;SDS011;10082;51.038;6.992;2023-01-08T00:23:47;1.30;;;1.17;;
19842;SDS011;10082;51.038;6.992;2023-01-08T00:26:14;1.58;;;1.48;;
19842;SDS011;10082;51.038;6.992;2023-01-08T00:28:42;1.55;;;1.40;;
19842;SDS011;10082;51.038;6.992;2023-01-08T00:31:10;1.65;;;1.35;;
19842;SDS011;10082;51.038;6.992;2023-01-08T00:33:38;3.17;;;1.50;;
19842;SDS011;10082;51.038;6.992;2023-01-08T00:36:06;1.50;;;1.40;;
19842;SDS011;10082;51.038;6.992;2023-01-08T00:38:34;1.60;;;1.50;;
19842;SDS011;10082;51.038;6.992;2023-01-08T00:41:01;1.40;;;1.30;;
19842;SDS011;10082;51.038;6.992;2023-01-08T00:43:28;1.83;;;1.73;;
19842;SDS011;10082;51.038;6.992;2023-01-08T00:45:56;1.88;;;1.50;;
19842;SDS011;10082;51.038;6.992;2023-01-08T00:48:24;1.45;;;1.30;;
19842;SDS011;10082;51.038;6.992;2023-01-08T00:50:51;1.50;;;1.40;;
19842;SDS011;10082;51.038;6.992;2023-01-08T00:53:20;1.65;;;1.52;;
19842;SDS011;10082;51.038;6.992;2023-01-08T00:55:48;2.13;;;1.33;;
19842;SDS011;10082;51.038;6.992;2023-01-08T00:58:15;1.40;;;1.30;;
19842;SDS011;10082;51.038;6.992;2023-01-08T01:00:42;1.30;;;1.20;;
19842;SDS011;10082;51.038;6.992;2023-01-08T01:03:11;2.50;;;1.60;;
19842;SDS011;10082;51.038;6.992;2023-01-08T01:05:38;1.60;;;1.50;;
19842;SDS011;10082;51.038;6.992;2023-01-08T01:08:05;1.45;;;1.35;;
19842;SDS011;10082;51.038;6.992;2023-01-08T01:10:32;1.75;;;1.35;;
19842;SDS011;10082;51.038;6.992;2023-01-08T01:12:59;1.63;;;1.52;;
19842;SDS011;10082;51.038;6.992;2023-01-08T01:15:26;2.30;;;1.52;;
19842;SDS011;10082;51.038;6.992;2023-01-08T01:17:53;1.60;;;1.10;;
19842;SDS011;10082;51.038;6.992;2023-01-08T01:20:22;1.73;;;1.38;;
19842;SDS011;10082;51.038;6.992;2023-01-08T01:22:49;1.40;;;1.27;;
19842;SDS011;10082;51.038;6.992;2023-01-08T01:25:16;2.13;;;1.50;;
19842;SDS011;10082;51.038;6.992;2023-01-08T01:27:43;1.58;;;1.48;;
19842;SDS011;10082;51.038;6.992;2023-01-08T01:30:11;1.65;;;1.55;;
19842;SDS011;10082;51.038;6.992;2023-01-08T01:32:38;1.60;;;1.50;;
19842;SDS011;10082;51.038;6.992;2023-01-08T01:35:05;1.73;;;1.60;;
19842;SDS011;10082;51.038;6.992;2023-01-08T01:37:34;1.58;;;1.48;;
19842;SDS011;10082;51.038;6.992;2023-01-08T01:40:02;1.45;;;1.30;;
19842;SDS011;10082;51.038;6.992;2023-01-08T01:42:30;1.92;;;1.42;;
19842;SDS011;10082;51.038;6.992;2023-01-08T01:45:13;1.50;;;1.40;;
19842;SDS011;10082;51.038;6.992;2023-01-08T01:47:42;1.60;;;1.23;;
19842;SDS011;10082;51.038;6.992;2023-01-08T01:50:13;1.58;;;1.48;;
19842;SDS011;10082;51.038;6.992;2023-01-08T01:52:46;1.40;;;1.30;;
19842;SDS011;10082;51.038;6.992;2023-01-08T01:55:19;1.95;;;1.45;;
19842;SDS011;10082;51.038;6.992;2023-01-08T01:57:48;1.80;;;1.70;;
19842;SDS011;10082;51.038;6.992;2023-01-08T02:00:18;1.65;;;1.50;;
19842;SDS011;10082;51.038;6.992;2023-01-08T02:02:47;2.10;;;1.83;;
19842;SDS011;10082;51.038;6.992;2023-01-08T02:05:15;2.00;;;1.90;;
19842;SDS011;10082;51.038;6.992;2023-01-08T02:07:43;2.65;;;2.00;;
19842;SDS011;10082;51.038;6.992;2023-01-08T02:10:23;2.20;;;1.77;;
19842;SDS011;10082;51.038;6.992;2023-01-08T02:12:57;2.17;;;1.80;;
19842;SDS011;10082;51.038;6.992;2023-01-08T02:15:31;1.85;;;1.60;;
19842;SDS011;10082;51.038;6.992;2023-01-08T02:18:04;2.83;;;1.90;;
19842;SDS011;10082;51.038;6.992;2023-01-08T02:20:35;2.65;;;1.80;;
19842;SDS011;10082;51.038;6.992;2023-01-08T02:23:09;2.20;;;2.00;;
19842;SDS011;10082;51.038;6.992;2023-01-08T02:28:43;2.03;;;1.92;;
19842;SDS011;10082;51.038;6.992;2023-01-08T02:31:15;2.05;;;1.80;;
19842;SDS011;10082;51.038;6.992;2023-01-08T02:33:44;3.35;;;2.22;;
19842;SDS011;10082;51.038;6.992;2023-01-08T02:36:16;3.10;;;2.20;;
19842;SDS011;10082;51.038;6.992;2023-01-08T02:38:53;3.30;;;2.30;;
19842;SDS011;10082;51.038;6.992;2023-01-08T02:41:31;2.85;;;2.10;;
19842;SDS011;10082;51.038;6.992;2023-01-08T02:44:05;3.10;;;2.40;;
19842;SDS011;10082;51.038;6.992;2023-01-08T02:46:35;4.20;;;2.42;;
19842;SDS011;10082;51.038;6.992;2023-01-08T02:49:06;2.75;;;2.50;;
19842;SDS011;10082;51.038;6.992;2023-01-08T02:51:36;2.80;;;2.58;;
19842;SDS011;10082;51.038;6.992;2023-01-08T02:54:08;3.38;;;2.90;;
19842;SDS011;10082;51.038;6.992;2023-01-08T02:56:40;3.25;;;2.70;;
19842;SDS011;10082;51.038;6.992;2023-01-08T02:59:11;3.65;;;2.88;;
19842;SDS011;10082;51.038;6.992;2023-01-08T03:01:41;2.97;;;2.78;;
19842;SDS011;10082;51.038;6.992;2023-01-08T03:04:11;3.65;;;3.05;;
19842;SDS011;10082;51.038;6.992;2023-01-08T03:06:41;3.13;;;2.90;;
19842;SDS011;10082;51.038;6.992;2023-01-08T03:09:11;2.92;;;2.67;;
19842;SDS011;10082;51.038;6.992;2023-01-08T03:11:43;4.03;;;2.78;;
19842;SDS011;10082;51.038;6.992;2023-01-08T03:14:17;2.97;;;2.70;;
19842;SDS011;10082;51.038;6.992;2023-01-08T03:16:50;3.20;;;2.70;;
19842;SDS011;10082;51.038;6.992;2023-01-08T03:19:25;2.97;;;2.78;;
19842;SDS011;10082;51.038;6.992;2023-01-08T03:21:55;3.00;;;2.80;;
19842;SDS011;10082;51.038;6.992;2023-01-08T03:24:27;2.70;;;2.50;;
19842;SDS011;10082;51.038;6.992;2023-01-08T03:26:59;3.38;;;2.78;;
19842;SDS011;10082;51.038;6.992;2023-01-08T03:29:30;2.83;;;2.63;;
19842;SDS011;10082;51.038;6.992;2023-01-08T03:32:00;3.20;;;2.70;;
19842;SDS011;10082;51.038;6.992;2023-01-08T03:34:30;2.70;;;2.50;;
19842;SDS011;10082;51.038;6.992;2023-01-08T03:37:01;3.28;;;2.70;;
19842;SDS011;10082;51.038;6.992;2023-01-08T03:39:33;3.42;;;3.13;;
19842;SDS011;10082;51.038;6.992;2023-01-08T03:42:08;4.03;;;2.80;;
19842;SDS011;10082;51.038;6.992;2023-01-08T03:44:39;3.70;;;2.88;;
19842;SDS011;10082;51.038;6.992;2023-01-08T03:47:06;3.00;;;2.70;;
19842;SDS011;10082;51.038;6.992;2023-01-08T03:49:35;3.63;;;2.70;;
19842;SDS011;10082;51.038;6.992;2023-01-08T03:52:04;2.78;;;2.58;;
19842;SDS011;10082;51.038;6.992;2023-01-08T03:54:33;3.08;;;2.78;;
19842;SDS011;10082;51.038;6.992;2023-01-08T03:57:01;3.30;;;3.00;;
19842;SDS011;10082;51.038;6.992;2023-01-08T03:59:30;2.90;;;2.60;;
19842;SDS011;10082;51.038;6.992;2023-01-08T04:01:57;4.32;;;3.17;;
19842;SDS011;10082;51.038;6.992;2023-01-08T04:04:24;3.08;;;2.88;;
19842;SDS011;10082;51.038;6.992;2023-01-08T04:06:51;3.03;;;2.80;;
19842;SDS011;10082;51.038;6.992;2023-01-08T04:09:18;3.33;;;3.03;;
19842;SDS011;10082;51.038;6.992;2023-01-08T04:11:45;2.80;;;2.60;;
19842;SDS011;10082;51.038;6.992;2023-01-08T04:14:12;3.15;;;2.90;;
19842;SDS011;10082;51.038;6.992;2023-01-08T04:16:41;3.42;;;3.13;;
19842;SDS011;10082;51.038;6.992;2023-01-08T04:19:09;3.40;;;3.10;;
19842;SDS011;10082;51.038;6.992;2023-01-08T04:21:37;3.30;;;3.05;;
19842;SDS011;10082;51.038;6.992;2023-01-08T04:24:04;3.30;;;3.00;;
19842;SDS011;10082;51.038;6.992;2023-01-08T04:26:31;3.65;;;3.10;;
19842;SDS011;10082;51.038;6.992;2023-01-08T04:29:00;3.20;;;2.90;;
19842;SDS011;10082;51.038;6.992;2023-01-08T04:31:27;4.00;;;3.65;;
19842;SDS011;10082;51.038;6.992;2023-01-08T04:33:56;4.70;;;3.40;;
19842;SDS011;10082;51.038;6.992;2023-01-08T04:36:23;3.55;;;3.25;;
19842;SDS011;10082;51.038;6.992;2023-01-08T04:38:50;3.45;;;3.15;;
19842;SDS011;10082;51.038;6.992;2023-01-08T04:41:17;3.65;;;3.33;;
19842;SDS011;10082;51.038;6.992;2023-01-08T04:43:44;3.60;;;3.30;;
19842;SDS011;10082;51.038;6.992;2023-01-08T04:46:11;3.63;;;3.33;;
19842;SDS011;10082;51.038;6.992;2023-01-08T04:48:38;3.35;;;3.05;;
19842;SDS011;10082;51.038;6.992;2023-01-08T04:51:08;3.83;;;3.28;;
19842;SDS011;10082;51.038;6.992;2023-01-08T04:53:36;3.53;;;3.22;;
19842;SDS011;10082;51.038;6.992;2023-01-08T04:56:05;3.40;;;3.10;;
19842;SDS011;10082;51.038;6.992;2023-01-08T04:58:34;3.20;;;2.97;;
19842;SDS011;10082;51.038;6.992;2023-01-08T05:01:08;3.20;;;3.00;;
19842;SDS011;10082;51.038;6.992;2023-01-08T05:03:36;4.15;;;3.13;;
19842;SDS011;10082;51.038;6.992;2023-01-08T05:06:04;3.10;;;2.83;;
19842;SDS011;10082;51.038;6.992;2023-01-08T05:08:33;2.90;;;2.63;;
19842;SDS011;10082;51.038;6.992;2023-01-08T05:11:00;3.45;;;3.10;;
19842;SDS011;10082;51.038;6.992;2023-01-08T05:13:27;3.45;;;3.15;;
19842;SDS011;10082;51.038;6.992;2023-01-08T05:15:57;2.55;;;2.30;;
19842;SDS011;10082;51.038;6.992;2023-01-08T05:18:25;2.17;;;2.08;;
19842;SDS011;10082;51.038;6.992;2023-01-08T05:20:53;2.38;;;2.10;;
19842;SDS011;10082;51.038;6.992;2023-01-08T05:23:20;2.42;;;2.20;;
19842;SDS011;10082;51.038;6.992;2023-01-08T05:25:48;2.20;;;1.83;;
19842;SDS011;10082;51.038;6.992;2023-01-08T05:28:15;1.90;;;1.80;;
19842;SDS011;10082;51.038;6.992;2023-01-08T05:30:42;2.30;;;1.70;;
19842;SDS011;10082;51.038;6.992;2023-01-08T05:33:09;1.80;;;1.70;;
19842;SDS011;10082;51.038;6.992;2023-01-08T05:35:37;2.33;;;1.60;;
19842;SDS011;10082;51.038;6.992;2023-01-08T05:38:05;1.45;;;1.35;;
19842;SDS011;10082;51.038;6.992;2023-01-08T05:40:32;1.75;;;1.65;;
19842;SDS011;10082;51.038;6.992;2023-01-08T05:43:00;2.17;;;1.80;;
19842;SDS011;10082;51.038;6.992;2023-01-08T05:45:29;1.58;;;1.48;;
19842;SDS011;10082;51.038;6.992;2023-01-08T05:47:57;1.90;;;1.80;;
19842;SDS011;10082;51.038;6.992;2023-01-08T05:50:24;2.30;;;2.10;;
19842;SDS011;10082;51.038;6.992;2023-01-08T05:52:53;1.50;;;1.40;;
19842;SDS011;10082;51.038;6.992;2023-01-08T05:55:20;1.60;;;1.45;;
19842;SDS011;10082;51.038;6.992;2023-01-08T05:57:47;1.65;;;1.55;;
19842;SDS011;10082;51.038;6.992;2023-01-08T06:00:18;1.35;;;1.25;;
19842;SDS011;10082;51.038;6.992;2023-01-08T06:02:45;1.50;;;1.40;;
19842;SDS011;10082;51.038;6.992;2023-01-08T06:05:13;2.35;;;1.23;;
19842;SDS011;10082;51.038;6.992;2023-01-08T06:07:40;1.38;;;1.20;;
19842;SDS011;10082;51.038;6.992;2023-01-08T06:10:07;1.40;;;1.30;;
19842;SDS011;10082;51.038;6.992;2023-01-08T06:12:34;1.33;;;1.00;;
19842;SDS011;10082;51.038;6.992;2023-01-08T06:15:02;1.10;;;0.95;;
19842;SDS011;10082;51.038;6.992;2023-01-08T06:17:33;1.20;;;1.10;;
19842;SDS011;10082;51.038;6.992;2023-01-08T06:20:01;0.70;;;0.70;;
19842;SDS011;10082;51.038;6.992;2023-01-08T06:22:29;0.80;;;0.80;;
19842;SDS011;10082;51.038;6.992;2023-01-08T06:24:56;1.10;;;1.00;;
19842;SDS011;10082;51.038;6.992;2023-01-08T06:27:23;1.70;;;1.02;;
19842;SDS011;10082;51.038;6.992;2023-01-08T06:29:51;0.90;;;0.90;;
19842;SDS011;10082;51.038;6.992;2023-01-08T06:32:18;0.95;;;0.95;;
19842;SDS011;10082;51.038;6.992;2023-01-08T06:34:47;0.82;;;0.70;;
19842;SDS011;10082;51.038;6.992;2023-01-08T06:37:14;1.10;;;1.00;;
19842;SDS011;10082;51.038;6.992;2023-01-08T06:39:41;0.88;;;0.70;;
19842;SDS011;10082;51.038;6.992;2023-01-08T06:42:08;0.90;;;0.90;;
19842;SDS011;10082;51.038;6.992;2023-01-08T06:44:36;0.80;;;0.80;;
19842;SDS011;10082;51.038;6.992;2023-01-08T06:47:03;0.70;;;0.70;;
19842;SDS011;10082;51.038;6.992;2023-01-08T06:49:30;0.70;;;0.70;;
19842;SDS011;10082;51.038;6.992;2023-01-08T06:51:59;0.63;;;0.63;;
19842;SDS011;10082;51.038;6.992;2023-01-08T06:54:26;0.70;;;0.70;;
19842;SDS011;10082;51.038;6.992;2023-01-08T06:56:53;0.70;;;0.70;;
19842;SDS011;10082;51.038;6.992;2023-01-08T06:59:20;1.40;;;0.90;;
19842;SDS011;10082;51.038;6.992;2023-01-08T07:01:48;0.77;;;0.70;;
19842;SDS011;10082;51.038;6.992;2023-01-08T07:04:15;0.60;;;0.60;;
19842;SDS011;10082;51.038;6.992;2023-01-08T07:06:43;1.52;;;0.85;;
19842;SDS011;10082;51.038;6.992;2023-01-08T07:09:12;1.40;;;0.70;;
19842;SDS011;10082;51.038;6.992;2023-01-08T07:11:46;1.52;;;0.60;;
19842;SDS011;10082;51.038;6.992;2023-01-08T07:14:13;1.20;;;0.68;;
19842;SDS011;10082;51.038;6.992;2023-01-08T07:16:40;1.08;;;0.65;;
19842;SDS011;10082;51.038;6.992;2023-01-08T07:19:07;1.83;;;0.70;;
19842;SDS011;10082;51.038;6.992;2023-01-08T07:21:34;0.88;;;0.70;;
19842;SDS011;10082;51.038;6.992;2023-01-08T07:24:01;1.13;;;0.70;;
19842;SDS011;10082;51.038;6.992;2023-01-08T07:26:33;1.95;;;0.88;;
19842;SDS011;10082;51.038;6.992;2023-01-08T07:29:00;1.45;;;0.65;;
19842;SDS011;10082;51.038;6.992;2023-01-08T07:31:28;3.05;;;0.95;;
19842;SDS011;10082;51.038;6.992;2023-01-08T07:33:56;3.00;;;0.90;;
19842;SDS011;10082;51.038;6.992;2023-01-08T07:36:23;2.83;;;0.77;;
19842;SDS011;10082;51.038;6.992;2023-01-08T07:38:50;2.58;;;0.77;;
19842;SDS011;10082;51.038;6.992;2023-01-08T07:41:17;2.35;;;0.95;;
19842;SDS011;10082;51.038;6.992;2023-01-08T07:43:47;2.45;;;0.73;;
19842;SDS011;10082;51.038;6.992;2023-01-08T07:46:14;3.38;;;1.15;;
19842;SDS011;10082;51.038;6.992;2023-01-08T07:48:42;2.20;;;1.00;;
19842;SDS011;10082;51.038;6.992;2023-01-08T07:51:09;1.70;;;0.80;;
19842;SDS011;10082;51.038;6.992;2023-01-08T07:53:36;1.83;;;1.05;;
19842;SDS011;10082;51.038;6.992;2023-01-08T07:56:04;3.78;;;1.20;;
19842;SDS011;10082;51.038;6.992;2023-01-08T07:58:33;2.78;;;1.10;;
19842;SDS011;10082;51.038;6.992;2023-01-08T08:01:03;4.45;;;1.20;;
19842;SDS011;10082;51.038;6.992;2023-01-08T08:03:34;6.38;;;1.45;;
19842;SDS011;10082;51.038;6.992;2023-01-08T08:06:01;3.22;;;1.10;;
19842;SDS011;10082;51.038;6.992;2023-01-08T08:08:28;3.42;;;1.30;;
19842;SDS011;10082;51.038;6.992;2023-01-08T08:10:55;3.08;;;1.30;;
19842;SDS011;10082;51.038;6.992;2023-01-08T08:13:22;2.55;;;1.02;;
19842;SDS011;10082;51.038;6.992;2023-01-08T08:15:49;3.63;;;1.10;;
19842;SDS011;10082;51.038;6.992;2023-01-08T08:18:18;2.42;;;1.20;;
19842;SDS011;10082;51.038;6.992;2023-01-08T08:20:44;2.38;;;1.35;;
19842;SDS011;10082;51.038;6.992;2023-01-08T08:23:13;4.43;;;1.58;;
19842;SDS011;10082;51.038;6.992;2023-01-08T08:25:40;4.30;;;2.15;;
19842;SDS011;10082;51.038;6.992;2023-01-08T08:28:08;4.05;;;1.90;;
19842;SDS011;10082;51.038;6.992;2023-01-08T08:30:36;3.38;;;1.60;;
19842;SDS011;10082;51.038;6.992;2023-01-08T08:33:04;4.05;;;1.60;;
19842;SDS011;10082;51.038;6.992;2023-01-08T08:35:33;3.45;;;1.90;;
19842;SDS011;10082;51.038;6.992;2023-01-08T08:38:01;3.63;;;1.80;;
19842;SDS011;10082;51.038;6.992;2023-01-08T08:40:29;5.90;;;1.70;;
19842;SDS011;10082;51.038;6.992;2023-01-08T08:42:57;6.00;;;2.38;;
19842;SDS011;10082;51.038;6.992;2023-01-08T08:45:25;5.43;;;1.90;;
19842;SDS011;10082;51.038;6.992;2023-01-08T08:47:52;4.65;;;1.63;;
19842;SDS011;10082;51.038;6.992;2023-01-08T08:50:20;5.03;;;1.70;;
19842;SDS011;10082;51.038;6.992;2023-01-08T08:52:49;4.10;;;1.77;;
19842;SDS011;10082;51.038;6.992;2023-01-08T08:55:16;4.97;;;1.90;;
19842;SDS011;10082;51.038;6.992;2023-01-08T08:57:45;2.15;;;1.27;;
19842;SDS011;10082;51.038;6.992;2023-01-08T09:00:15;3.03;;;1.05;;
19842;SDS011;10082;51.038;6.992;2023-01-08T09:02:43;1.98;;;1.00;;
19842;SDS011;10082;51.038;6.992;2023-01-08T09:05:11;1.25;;;0.90;;
19842;SDS011;10082;51.038;6.992;2023-01-08T09:07:38;4.07;;;1.40;;
19842;SDS011;10082;51.038;6.992;2023-01-08T09:10:07;2.15;;;1.00;;
19842;SDS011;10082;51.038;6.992;2023-01-08T09:12:34;2.05;;;1.02;;
19842;SDS011;10082;51.038;6.992;2023-01-08T09:15:02;2.95;;;1.23;;
19842;SDS011;10082;51.038;6.992;2023-01-08T09:17:29;2.65;;;1.02;;
19842;SDS011;10082;51.038;6.992;2023-01-08T09:19:58;2.38;;;1.10;;
19842;SDS011;10082;51.038;6.992;2023-01-08T09:22:24;3.40;;;1.35;;
19842;SDS011;10082;51.038;6.992;2023-01-08T09:24:51;2.88;;;1.52;;
19842;SDS011;10082;51.038;6.992;2023-01-08T09:27:20;3.78;;;1.30;;
19842;SDS011;10082;51.038;6.992;2023-01-08T09:29:47;2.70;;;1.20;;
19842;SDS011;10082;51.038;6.992;2023-01-08T09:32:14;3.08;;;1.50;;
19842;SDS011;10082;51.038;6.992;2023-01-08T09:34:41;4.28;;;1.65;;
19842;SDS011;10082;51.038;6.992;2023-01-08T09:37:08;1.65;;;1.08;;
19842;SDS011;10082;51.038;6.992;2023-01-08T09:39:36;1.70;;;1.20;;
19842;SDS011;10082;51.038;6.992;2023-01-08T09:42:04;2.13;;;1.23;;
19842;SDS011;10082;51.038;6.992;2023-01-08T09:44:35;2.17;;;1.20;;
19842;SDS011;10082;51.038;6.992;2023-01-08T09:47:05;2.60;;;1.33;;
19842;SDS011;10082;51.038;6.992;2023-01-08T09:49:43;1.55;;;0.95;;
19842;SDS011;10082;51.038;6.992;2023-01-08T09:52:12;1.67;;;0.90;;
19842;SDS011;10082;51.038;6.992;2023-01-08T09:54:40;1.63;;;1.08;;
19842;SDS011;10082;51.038;6.992;2023-01-08T09:57:09;2.10;;;1.10;;
19842;SDS011;10082;51.038;6.992;2023-01-08T09:59:41;2.42;;;0.95;;
19842;SDS011;10082;51.038;6.992;2023-01-08T10:02:12;1.17;;;1.08;;
19842;SDS011;10082;51.038;6.992;2023-01-08T10:04:41;1.65;;;0.98;;
19842;SDS011;10082;51.038;6.992;2023-01-08T10:07:10;1.90;;;0.98;;
19842;SDS011;10082;51.038;6.992;2023-01-08T10:09:45;1.35;;;0.70;;
19842;SDS011;10082;51.038;6.992;2023-01-08T10:12:13;2.35;;;1.15;;
19842;SDS011;10082;51.038;6.992;2023-01-08T10:14:44;1.45;;;0.95;;
19842;SDS011;10082;51.038;6.992;2023-01-08T10:17:21;2.15;;;0.80;;
19842;SDS011;10082;51.038;6.992;2023-01-08T10:19:53;1.98;;;0.90;;
19842;SDS011;10082;51.038;6.992;2023-01-08T10:22:21;1.92;;;1.05;;
19842;SDS011;10082;51.038;6.992;2023-01-08T10:24:49;1.63;;;1.10;;
19842;SDS011;10082;51.038;6.992;2023-01-08T10:27:17;2.53;;;1.02;;
19842;SDS011;10082;51.038;6.992;2023-01-08T10:29:49;1.80;;;1.00;;
19842;SDS011;10082;51.038;6.992;2023-01-08T10:32:18;2.13;;;0.93;;
19842;SDS011;10082;51.038;6.992;2023-01-08T10:34:50;1.60;;;1.20;;
19842;SDS011;10082;51.038;6.992;2023-01-08T10:37:22;1.65;;;1.00;;
19842;SDS011;10082;51.038;6.992;2023-01-08T10:39:53;2.83;;;1.20;;
19842;SDS011;10082;51.038;6.992;2023-01-08T10:42:21;1.45;;;1.20;;
19842;SDS011;10082;51.038;6.992;2023-01-08T10:44:56;1.75;;;1.35;;
19842;SDS011;10082;51.038;6.992;2023-01-08T10:47:26;1.77;;;1.10;;
19842;SDS011;10082;51.038;6.992;2023-01-08T10:49:56;1.63;;;1.10;;
19842;SDS011;10082;51.038;6.992;2023-01-08T10:52:26;1.35;;;1.02;;
19842;SDS011;10082;51.038;6.992;2023-01-08T10:54:56;1.67;;;1.20;;
19842;SDS011;10082;51.038;6.992;2023-01-08T10:57:38;1.38;;;1.00;;
19842;SDS011;10082;51.038;6.992;2023-01-08T11:02:55;3.17;;;1.60;;
19842;SDS011;10082;51.038;6.992;2023-01-08T11:05:29;1.90;;;1.00;;
19842;SDS011;10082;51.038;6.992;2023-01-08T11:07:58;2.92;;;1.02;;
19842;SDS011;10082;51.038;6.992;2023-01-08T11:10:26;3.13;;;1.10;;
19842;SDS011;10082;51.038;6.992;2023-01-08T11:12:55;2.78;;;0.88;;
19842;SDS011;10082;51.038;6.992;2023-01-08T11:18:14;2.55;;;0.98;;
19842;SDS011;10082;51.038;6.992;2023-01-08T11:20:44;0.98;;;0.82;;
19842;SDS011;10082;51.038;6.992;2023-01-08T11:23:16;1.27;;;0.90;;
19842;SDS011;10082;51.038;6.992;2023-01-08T11:25:47;2.35;;;1.10;;
19842;SDS011;10082;51.038;6.992;2023-01-08T11:28:23;1.98;;;0.82;;
19842;SDS011;10082;51.038;6.992;2023-01-08T11:30:59;1.25;;;0.80;;
19842;SDS011;10082;51.038;6.992;2023-01-08T11:33:35;1.67;;;1.02;;
19842;SDS011;10082;51.038;6.992;2023-01-08T11:36:08;1.23;;;0.80;;
19842;SDS011;10082;51.038;6.992;2023-01-08T11:38:40;1.55;;;1.00;;
19842;SDS011;10082;51.038;6.992;2023-01-08T11:41:14;1.67;;;0.98;;
19842;SDS011;10082;51.038;6.992;2023-01-08T11:43:59;2.55;;;0.80;;
19842;SDS011;10082;51.038;6.992;2023-01-08T11:46:46;1.45;;;0.90;;
19842;SDS011;10082;51.038;6.992;2023-01-08T11:49:30;1.45;;;1.00;;
19842;SDS011;10082;51.038;6.992;2023-01-08T11:52:14;1.02;;;0.90;;
19842;SDS011;10082;51.038;6.992;2023-01-08T11:57:58;1.00;;;0.80;;
19842;SDS011;10082;51.038;6.992;2023-01-08T12:00:41;2.92;;;0.80;;
19842;SDS011;10082;51.038;6.992;2023-01-08T12:03:25;2.42;;;0.80;;
19842;SDS011;10082;51.038;6.992;2023-01-08T12:06:01;1.58;;;1.10;;
19842;SDS011;10082;51.038;6.992;2023-01-08T12:08:43;1.98;;;1.30;;
19842;SDS011;10082;51.038;6.992;2023-01-08T12:11:22;1.90;;;1.10;;
19842;SDS011;10082;51.038;6.992;2023-01-08T12:14:00;1.20;;;0.82;;
19842;SDS011;10082;51.038;6.992;2023-01-08T12:16:44;0.77;;;0.77;;
19842;SDS011;10082;51.038;6.992;2023-01-08T12:19:25;2.38;;;1.20;;
19842;SDS011;10082;51.038;6.992;2023-01-08T12:22:06;1.52;;;1.00;;
19842;SDS011;10082;51.038;6.992;2023-01-08T12:24:51;2.65;;;1.13;;
19842;SDS011;10082;51.038;6.992;2023-01-08T12:27:30;2.22;;;1.33;;
19842;SDS011;10082;51.038;6.992;2023-01-08T12:30:10;2.08;;;1.35;;
19842;SDS011;10082;51.038;6.992;2023-01-08T12:32:44;0.63;;;0.63;;
19842;SDS011;10082;51.038;6.992;2023-01-08T12:35:17;1.00;;;0.90;;
19842;SDS011;10082;51.038;6.992;2023-01-08T12:37:49;2.08;;;1.00;;
19842;SDS011;10082;51.038;6.992;2023-01-08T12:40:21;2.33;;;1.38;;
19842;SDS011;10082;51.038;6.992;2023-01-08T12:42:52;3.33;;;1.58;;
19842;SDS011;10082;51.038;6.992;2023-01-08T12:45:22;2.95;;;1.58;;
19842;SDS011;10082;51.038;6.992;2023-01-08T12:47:54;3.50;;;1.88;;
19842;SDS011;10082;51.038;6.992;2023-01-08T12:50:35;2.35;;;1.20;;
19842;SDS011;10082;51.038;6.992;2023-01-08T12:53:12;1.05;;;0.95;;
19842;SDS011;10082;51.038;6.992;2023-01-08T12:55:45;1.45;;;0.70;;
19842;SDS011;10082;51.038;6.992;2023-01-08T12:58:22;1.10;;;0.95;;
19842;SDS011;10082;51.038;6.992;2023-01-08T13:00:59;0.80;;;0.70;;
19842;SDS011;10082;51.038;6.992;2023-01-08T13:03:37;1.58;;;1.30;;
19842;SDS011;10082;51.038;6.992;2023-01-08T13:06:07;1.30;;;1.17;;
19842;SDS011;10082;51.038;6.992;2023-01-08T13:08:37;1.83;;;1.08;;
19842;SDS011;10082;51.038;6.992;2023-01-08T13:11:07;1.67;;;1.17;;
19842;SDS011;10082;51.038;6.992;2023-01-08T13:13:35;2.65;;;1.38;;
19842;SDS011;10082;51.038;6.992;2023-01-08T13:16:06;2.35;;;1.17;;
19842;SDS011;10082;51.038;6.992;2023-01-08T13:18:49;2.88;;;1.50;;
19842;SDS011;10082;51.038;6.992;2023-01-08T13:21:25;2.53;;;1.70;;
19842;SDS011;10082;51.038;6.992;2023-01-08T13:23:59;2.05;;;1.20;;
19842;SDS011;10082;51.038;6.992;2023-01-08T13:26:31;2.70;;;1.45;;
19842;SDS011;10082;51.038;6.992;2023-01-08T13:31:50;2.10;;;1.42;;
19842;SDS011;10082;51.038;6.992;2023-01-08T13:34:22;2.00;;;1.10;;
19842;SDS011;10082;51.038;6.992;2023-01-08T13:37:03;2.35;;;1.60;;
19842;SDS011;10082;51.038;6.992;2023-01-08T13:39:31;0.95;;;0.75;;
19842;SDS011;10082;51.038;6.992;2023-01-08T13:42:18;1.48;;;0.93;;
19842;SDS011;10082;51.038;6.992;2023-01-08T13:44:49;0.85;;;0.65;;
19842;SDS011;10082;51.038;6.992;2023-01-08T13:47:20;0.95;;;0.70;;
19842;SDS011;10082;51.038;6.992;2023-01-08T13:49:53;0.40;;;0.40;;
19842;SDS011;10082;51.038;6.992;2023-01-08T13:55:11;0.65;;;0.52;;
19842;SDS011;10082;51.038;6.992;2023-01-08T13:57:42;0.60;;;0.50;;
19842;SDS011;10082;51.038;6.992;2023-01-08T14:00:16;0.80;;;0.73;;
19842;SDS011;10082;51.038;6.992;2023-01-08T14:02:47;1.27;;;0.60;;
19842;SDS011;10082;51.038;6.992;2023-01-08T14:05:20;1.15;;;0.80;;
19842;SDS011;10082;51.038;6.992;2023-01-08T14:07:54;1.60;;;1.20;;
19842;SDS011;10082;51.038;6.992;2023-01-08T14:10:22;1.35;;;1.00;;
19842;SDS011;10082;51.038;6.992;2023-01-08T14:12:50;1.85;;;1.00;;
19842;SDS011;10082;51.038;6.992;2023-01-08T14:15:20;1.38;;;0.80;;
19842;SDS011;10082;51.038;6.992;2023-01-08T14:17:49;1.92;;;1.40;;
19842;SDS011;10082;51.038;6.992;2023-01-08T14:20:22;2.85;;;1.10;;
19842;SDS011;10082;51.038;6.992;2023-01-08T14:22:57;2.45;;;1.45;;
19842;SDS011;10082;51.038;6.992;2023-01-08T14:25:25;3.75;;;1.92;;
19842;SDS011;10082;51.038;6.992;2023-01-08T14:27:56;1.38;;;1.27;;
19842;SDS011;10082;51.038;6.992;2023-01-08T14:30:25;2.00;;;1.60;;
19842;SDS011;10082;51.038;6.992;2023-01-08T14:32:53;1.70;;;1.10;;
19842;SDS011;10082;51.038;6.992;2023-01-08T14:35:22;2.25;;;1.10;;
19842;SDS011;10082;51.038;6.992;2023-01-08T14:37:58;2.30;;;1.30;;
19842;SDS011;10082;51.038;6.992;2023-01-08T14:40:27;2.17;;;1.40;;
19842;SDS011;10082;51.038;6.992;2023-01-08T14:42:56;2.45;;;1.88;;
19842;SDS011;10082;51.038;6.992;2023-01-08T14:45:28;1.88;;;1.25;;
19842;SDS011;10082;51.038;6.992;2023-01-08T14:47:58;2.70;;;1.30;;
19842;SDS011;10082;51.038;6.992;2023-01-08T14:50:28;1.33;;;0.98;;
19842;SDS011;10082;51.038;6.992;2023-01-08T14:53:02;1.08;;;0.98;;
19842;SDS011;10082;51.038;6.992;2023-01-08T14:55:32;0.93;;;0.82;;
19842;SDS011;10082;51.038;6.992;2023-01-08T15:01:50;2.60;;;2.05;;
19842;SDS011;10082;51.038;6.992;2023-01-08T15:04:20;3.20;;;1.80;;
19842;SDS011;10082;51.038;6.992;2023-01-08T15:06:48;2.22;;;1.38;;
19842;SDS011;10082;51.038;6.992;2023-01-08T15:09:22;1.88;;;0.90;;
19842;SDS011;10082;51.038;6.992;2023-01-08T15:11:52;1.63;;;1.10;;
19842;SDS011;10082;51.038;6.992;2023-01-08T15:14:23;2.38;;;1.27;;
19842;SDS011;10082;51.038;6.992;2023-01-08T15:16:52;2.55;;;1.50;;
19842;SDS011;10082;51.038;6.992;2023-01-08T15:19:22;4.60;;;1.80;;
19842;SDS011;10082;51.038;6.992;2023-01-08T15:21:51;2.53;;;1.30;;
19842;SDS011;10082;51.038;6.992;2023-01-08T15:24:23;1.83;;;1.20;;
19842;SDS011;10082;51.038;6.992;2023-01-08T15:26:54;2.22;;;1.65;;